sensor_id;sensor_type;location;lat;lon;timestamp;P1;durP1;ratioP1;P2;durP2;ratioP2
49852;SDS011;35751;48.072;11.688;2023-02-21T00:02:23;2.22;;;1.60;;
49852;SDS011;35751;48.072;11.688;2023-02-21T00:05:06;3.10;;;1.85;;
49852;SDS011;35751;48.072;11.688;2023-02-21T00:07:50;1.90;;;1.70;;
49852;SDS011;35751;48.072;11.688;2023-02-21T00:10:34;3.25;;;1.85;;
49852;SDS011;35751;48.072;11.688;2023-02-21T00:13:18;4.20;;;1.65;;
49852;SDS011;35751;48.072;11.688;2023-02-21T00:16:02;3.92;;;2.88;;
49852;SDS011;35751;48.072;11.688;2023-02-21T00:18:46;2.90;;;2.13;;
49852;SDS011;35751;48.072;11.688;2023-02-21T00:21:29;4.65;;;2.92;;
49852;SDS011;35751;48.072;11.688;2023-02-21T00:24:14;2.65;;;2.08;;
49852;SDS011;35751;48.072;11.688;2023-02-21T00:27:00;4.20;;;2.10;;
49852;SDS011;35751;48.072;11.688;2023-02-21T00:29:48;4.72;;;2.30;;
49852;SDS011;35751;48.072;11.688;2023-02-21T00:32:32;3.50;;;2.15;;
49852;SDS011;35751;48.072;11.688;2023-02-21T00:35:16;4.05;;;2.47;;
49852;SDS011;35751;48.072;11.688;2023-02-21T00:38:00;3.15;;;2.03;;
49852;SDS011;35751;48.072;11.688;2023-02-21T00:40:44;4.25;;;1.83;;
49852;SDS011;35751;48.072;11.688;2023-02-21T00:43:29;2.75;;;1.80;;
49852;SDS011;35751;48.072;11.688;2023-02-21T00:46:14;2.22;;;1.95;;
49852;SDS011;35751;48.072;11.688;2023-02-21T00:48:58;2.17;;;1.77;;
49852;SDS011;35751;48.072;11.688;2023-02-21T00:51:43;2.22;;;1.98;;
49852;SDS011;35751;48.072;11.688;2023-02-21T00:54:27;4.22;;;2.45;;
49852;SDS011;35751;48.072;11.688;2023-02-21T00:57:10;2.80;;;2.10;;
49852;SDS011;35751;48.072;11.688;2023-02-21T00:59:54;5.25;;;2.55;;
49852;SDS011;35751;48.072;11.688;2023-02-21T01:02:38;4.75;;;2.67;;
49852;SDS011;35751;48.072;11.688;2023-02-21T01:05:22;4.18;;;2.50;;
49852;SDS011;35751;48.072;11.688;2023-02-21T01:08:06;3.60;;;2.22;;
49852;SDS011;35751;48.072;11.688;2023-02-21T01:10:49;2.97;;;2.28;;
49852;SDS011;35751;48.072;11.688;2023-02-21T01:13:33;3.60;;;2.15;;
49852;SDS011;35751;48.072;11.688;2023-02-21T01:16:17;3.40;;;1.80;;
49852;SDS011;35751;48.072;11.688;2023-02-21T01:19:01;4.25;;;2.00;;
49852;SDS011;35751;48.072;11.688;2023-02-21T01:21:44;2.90;;;1.98;;
49852;SDS011;35751;48.072;11.688;2023-02-21T01:24:28;2.72;;;2.20;;
49852;SDS011;35751;48.072;11.688;2023-02-21T01:27:12;4.15;;;2.55;;
49852;SDS011;35751;48.072;11.688;2023-02-21T01:29:56;2.83;;;2.10;;
49852;SDS011;35751;48.072;11.688;2023-02-21T01:32:39;2.70;;;1.85;;
49852;SDS011;35751;48.072;11.688;2023-02-21T01:35:23;2.47;;;2.28;;
49852;SDS011;35751;48.072;11.688;2023-02-21T01:38:07;2.90;;;1.58;;
49852;SDS011;35751;48.072;11.688;2023-02-21T01:40:51;4.50;;;1.48;;
49852;SDS011;35751;48.072;11.688;2023-02-21T01:43:35;4.32;;;2.47;;
49852;SDS011;35751;48.072;11.688;2023-02-21T01:46:19;2.85;;;1.80;;
49852;SDS011;35751;48.072;11.688;2023-02-21T01:49:12;2.10;;;1.73;;
49852;SDS011;35751;48.072;11.688;2023-02-21T01:51:58;3.85;;;1.73;;
49852;SDS011;35751;48.072;11.688;2023-02-21T01:54:44;4.05;;;1.83;;
49852;SDS011;35751;48.072;11.688;2023-02-21T01:57:29;2.15;;;1.92;;
49852;SDS011;35751;48.072;11.688;2023-02-21T02:00:14;3.75;;;2.20;;
49852;SDS011;35751;48.072;11.688;2023-02-21T02:03:00;2.33;;;1.90;;
49852;SDS011;35751;48.072;11.688;2023-02-21T02:05:48;2.33;;;2.05;;
49852;SDS011;35751;48.072;11.688;2023-02-21T02:08:35;2.17;;;1.70;;
49852;SDS011;35751;48.072;11.688;2023-02-21T02:11:34;3.35;;;2.08;;
49852;SDS011;35751;48.072;11.688;2023-02-21T02:36:26;3.97;;;2.13;;
49852;SDS011;35751;48.072;11.688;2023-02-21T02:39:04;3.80;;;1.80;;
49852;SDS011;35751;48.072;11.688;2023-02-21T02:44:39;3.42;;;2.22;;
49852;SDS011;35751;48.072;11.688;2023-02-21T02:47:06;2.97;;;2.30;;
49852;SDS011;35751;48.072;11.688;2023-02-21T02:49:35;2.53;;;2.10;;
49852;SDS011;35751;48.072;11.688;2023-02-21T02:52:03;3.53;;;1.77;;
49852;SDS011;35751;48.072;11.688;2023-02-21T02:54:30;3.03;;;2.25;;
49852;SDS011;35751;48.072;11.688;2023-02-21T02:56:55;5.00;;;2.20;;
49852;SDS011;35751;48.072;11.688;2023-02-21T02:59:24;3.95;;;2.35;;
49852;SDS011;35751;48.072;11.688;2023-02-21T03:01:57;4.20;;;2.08;;
49852;SDS011;35751;48.072;11.688;2023-02-21T03:15:51;3.03;;;2.05;;
49852;SDS011;35751;48.072;11.688;2023-02-21T03:18:28;4.65;;;2.40;;
49852;SDS011;35751;48.072;11.688;2023-02-21T03:20:56;6.30;;;2.47;;
49852;SDS011;35751;48.072;11.688;2023-02-21T03:23:23;7.10;;;2.53;;
49852;SDS011;35751;48.072;11.688;2023-02-21T03:25:51;3.50;;;2.10;;
49852;SDS011;35751;48.072;11.688;2023-02-21T03:28:18;4.80;;;1.70;;
49852;SDS011;35751;48.072;11.688;2023-02-21T03:30:44;3.00;;;2.58;;
49852;SDS011;35751;48.072;11.688;2023-02-21T03:33:11;2.67;;;1.73;;
49852;SDS011;35751;48.072;11.688;2023-02-21T03:35:36;4.50;;;2.55;;
49852;SDS011;35751;48.072;11.688;2023-02-21T03:38:01;6.80;;;2.22;;
49852;SDS011;35751;48.072;11.688;2023-02-21T03:40:29;4.93;;;2.55;;
49852;SDS011;35751;48.072;11.688;2023-02-21T03:42:56;3.42;;;1.92;;
49852;SDS011;35751;48.072;11.688;2023-02-21T03:45:22;4.30;;;2.13;;
49852;SDS011;35751;48.072;11.688;2023-02-21T03:47:47;4.57;;;2.60;;
49852;SDS011;35751;48.072;11.688;2023-02-21T03:50:13;5.03;;;2.83;;
49852;SDS011;35751;48.072;11.688;2023-02-21T03:52:38;3.25;;;2.53;;
49852;SDS011;35751;48.072;11.688;2023-02-21T03:55:04;2.78;;;2.50;;
49852;SDS011;35751;48.072;11.688;2023-02-21T03:57:30;3.97;;;2.20;;
49852;SDS011;35751;48.072;11.688;2023-02-21T03:59:56;4.53;;;2.67;;
49852;SDS011;35751;48.072;11.688;2023-02-21T04:02:21;3.83;;;2.35;;
49852;SDS011;35751;48.072;11.688;2023-02-21T04:04:47;3.00;;;2.47;;
49852;SDS011;35751;48.072;11.688;2023-02-21T04:07:13;4.13;;;2.92;;
49852;SDS011;35751;48.072;11.688;2023-02-21T04:09:39;2.88;;;2.22;;
49852;SDS011;35751;48.072;11.688;2023-02-21T04:12:04;3.35;;;2.10;;
49852;SDS011;35751;48.072;11.688;2023-02-21T04:14:30;4.10;;;2.53;;
49852;SDS011;35751;48.072;11.688;2023-02-21T04:16:55;3.38;;;2.40;;
49852;SDS011;35751;48.072;11.688;2023-02-21T04:19:21;4.65;;;1.98;;
49852;SDS011;35751;48.072;11.688;2023-02-21T04:21:46;2.85;;;2.05;;
49852;SDS011;35751;48.072;11.688;2023-02-21T04:24:12;4.18;;;2.67;;
49852;SDS011;35751;48.072;11.688;2023-02-21T04:26:37;3.65;;;2.70;;
49852;SDS011;35751;48.072;11.688;2023-02-21T04:29:03;3.42;;;2.40;;
49852;SDS011;35751;48.072;11.688;2023-02-21T04:31:28;3.08;;;1.98;;
49852;SDS011;35751;48.072;11.688;2023-02-21T04:33:54;2.78;;;2.38;;
49852;SDS011;35751;48.072;11.688;2023-02-21T04:36:19;3.20;;;2.50;;
49852;SDS011;35751;48.072;11.688;2023-02-21T04:38:45;4.47;;;1.85;;
49852;SDS011;35751;48.072;11.688;2023-02-21T04:41:10;2.42;;;1.98;;
49852;SDS011;35751;48.072;11.688;2023-02-21T04:43:36;7.63;;;2.03;;
49852;SDS011;35751;48.072;11.688;2023-02-21T04:46:01;5.43;;;2.35;;
49852;SDS011;35751;48.072;11.688;2023-02-21T04:48:27;3.83;;;2.67;;
49852;SDS011;35751;48.072;11.688;2023-02-21T04:50:52;3.42;;;2.47;;
49852;SDS011;35751;48.072;11.688;2023-02-21T04:53:18;4.05;;;2.60;;
49852;SDS011;35751;48.072;11.688;2023-02-21T04:55:43;5.57;;;2.65;;
49852;SDS011;35751;48.072;11.688;2023-02-21T04:58:08;5.35;;;2.28;;
49852;SDS011;35751;48.072;11.688;2023-02-21T05:00:34;3.92;;;2.25;;
49852;SDS011;35751;48.072;11.688;2023-02-21T05:03:00;2.65;;;2.05;;
49852;SDS011;35751;48.072;11.688;2023-02-21T05:05:25;2.38;;;1.80;;
49852;SDS011;35751;48.072;11.688;2023-02-21T05:07:50;6.65;;;2.20;;
49852;SDS011;35751;48.072;11.688;2023-02-21T05:10:16;3.90;;;2.78;;
49852;SDS011;35751;48.072;11.688;2023-02-21T05:12:42;3.22;;;2.00;;
49852;SDS011;35751;48.072;11.688;2023-02-21T05:15:08;7.35;;;2.08;;
49852;SDS011;35751;48.072;11.688;2023-02-21T05:17:33;4.10;;;2.08;;
49852;SDS011;35751;48.072;11.688;2023-02-21T05:19:58;5.22;;;2.08;;
49852;SDS011;35751;48.072;11.688;2023-02-21T05:22:24;4.22;;;2.80;;
49852;SDS011;35751;48.072;11.688;2023-02-21T05:24:49;3.38;;;2.10;;
49852;SDS011;35751;48.072;11.688;2023-02-21T05:27:16;6.95;;;3.05;;
49852;SDS011;35751;48.072;11.688;2023-02-21T05:29:48;3.28;;;2.30;;
49852;SDS011;35751;48.072;11.688;2023-02-21T05:32:14;4.30;;;2.55;;
49852;SDS011;35751;48.072;11.688;2023-02-21T05:34:40;4.82;;;3.35;;
49852;SDS011;35751;48.072;11.688;2023-02-21T05:37:08;4.28;;;2.13;;
49852;SDS011;35751;48.072;11.688;2023-02-21T05:39:34;3.20;;;1.80;;
49852;SDS011;35751;48.072;11.688;2023-02-21T05:42:00;3.95;;;1.90;;
49852;SDS011;35751;48.072;11.688;2023-02-21T05:44:25;2.53;;;1.70;;
49852;SDS011;35751;48.072;11.688;2023-02-21T05:46:51;2.83;;;1.50;;
49852;SDS011;35751;48.072;11.688;2023-02-21T05:49:16;1.95;;;1.48;;
49852;SDS011;35751;48.072;11.688;2023-02-21T05:51:42;2.85;;;1.05;;
49852;SDS011;35751;48.072;11.688;2023-02-21T05:54:08;2.65;;;1.70;;
49852;SDS011;35751;48.072;11.688;2023-02-21T05:56:39;3.65;;;1.67;;
49852;SDS011;35751;48.072;11.688;2023-02-21T05:59:05;2.47;;;1.70;;
49852;SDS011;35751;48.072;11.688;2023-02-21T06:01:31;2.60;;;1.67;;
49852;SDS011;35751;48.072;11.688;2023-02-21T06:03:56;1.77;;;1.05;;
49852;SDS011;35751;48.072;11.688;2023-02-21T06:06:22;2.97;;;1.75;;
49852;SDS011;35751;48.072;11.688;2023-02-21T06:08:49;1.67;;;1.35;;
49852;SDS011;35751;48.072;11.688;2023-02-21T06:11:14;3.38;;;1.52;;
49852;SDS011;35751;48.072;11.688;2023-02-21T06:13:45;1.98;;;1.20;;
49852;SDS011;35751;48.072;11.688;2023-02-21T06:16:10;2.67;;;1.50;;
49852;SDS011;35751;48.072;11.688;2023-02-21T06:18:36;3.10;;;1.80;;
49852;SDS011;35751;48.072;11.688;2023-02-21T06:21:02;3.80;;;1.73;;
49852;SDS011;35751;48.072;11.688;2023-02-21T06:23:27;3.83;;;1.50;;
49852;SDS011;35751;48.072;11.688;2023-02-21T06:25:54;4.57;;;1.83;;
49852;SDS011;35751;48.072;11.688;2023-02-21T06:28:19;4.60;;;1.63;;
49852;SDS011;35751;48.072;11.688;2023-02-21T06:30:46;3.20;;;1.73;;
49852;SDS011;35751;48.072;11.688;2023-02-21T06:33:11;2.55;;;1.80;;
49852;SDS011;35751;48.072;11.688;2023-02-21T06:35:37;3.80;;;1.70;;
49852;SDS011;35751;48.072;11.688;2023-02-21T06:38:03;4.25;;;1.40;;
49852;SDS011;35751;48.072;11.688;2023-02-21T06:40:28;3.17;;;1.60;;
49852;SDS011;35751;48.072;11.688;2023-02-21T06:42:54;2.85;;;1.83;;
49852;SDS011;35751;48.072;11.688;2023-02-21T06:45:19;3.88;;;1.35;;
49852;SDS011;35751;48.072;11.688;2023-02-21T06:47:45;4.32;;;2.10;;
49852;SDS011;35751;48.072;11.688;2023-02-21T06:50:11;2.63;;;1.52;;
49852;SDS011;35751;48.072;11.688;2023-02-21T06:52:36;2.47;;;1.80;;
49852;SDS011;35751;48.072;11.688;2023-02-21T06:55:02;2.03;;;1.80;;
49852;SDS011;35751;48.072;11.688;2023-02-21T06:57:28;2.20;;;1.65;;
49852;SDS011;35751;48.072;11.688;2023-02-21T06:59:53;2.40;;;1.50;;
49852;SDS011;35751;48.072;11.688;2023-02-21T07:02:20;6.05;;;1.80;;
49852;SDS011;35751;48.072;11.688;2023-02-21T07:04:45;3.97;;;1.70;;
49852;SDS011;35751;48.072;11.688;2023-02-21T07:07:12;10.07;;;3.13;;
49852;SDS011;35751;48.072;11.688;2023-02-21T07:09:37;3.78;;;1.63;;
49852;SDS011;35751;48.072;11.688;2023-02-21T07:12:03;2.30;;;1.70;;
49852;SDS011;35751;48.072;11.688;2023-02-21T07:14:29;6.43;;;2.10;;
49852;SDS011;35751;48.072;11.688;2023-02-21T07:16:54;3.92;;;2.40;;
49852;SDS011;35751;48.072;11.688;2023-02-21T07:19:20;6.15;;;1.80;;
49852;SDS011;35751;48.072;11.688;2023-02-21T07:21:46;5.80;;;2.58;;
49852;SDS011;35751;48.072;11.688;2023-02-21T07:24:13;3.95;;;2.50;;
49852;SDS011;35751;48.072;11.688;2023-02-21T07:26:38;2.65;;;1.73;;
49852;SDS011;35751;48.072;11.688;2023-02-21T07:29:04;2.35;;;1.60;;
49852;SDS011;35751;48.072;11.688;2023-02-21T07:31:30;5.38;;;2.58;;
49852;SDS011;35751;48.072;11.688;2023-02-21T07:33:55;4.88;;;2.53;;
49852;SDS011;35751;48.072;11.688;2023-02-21T07:36:21;2.72;;;1.60;;
49852;SDS011;35751;48.072;11.688;2023-02-21T07:38:47;2.35;;;1.90;;
49852;SDS011;35751;48.072;11.688;2023-02-21T07:41:14;4.97;;;1.75;;
49852;SDS011;35751;48.072;11.688;2023-02-21T07:43:43;2.50;;;1.60;;
49852;SDS011;35751;48.072;11.688;2023-02-21T07:46:12;3.97;;;2.60;;
49852;SDS011;35751;48.072;11.688;2023-02-21T07:48:38;3.80;;;2.00;;
49852;SDS011;35751;48.072;11.688;2023-02-21T07:51:07;6.78;;;2.47;;
49852;SDS011;35751;48.072;11.688;2023-02-21T07:53:34;3.90;;;2.25;;
49852;SDS011;35751;48.072;11.688;2023-02-21T07:56:00;4.63;;;2.13;;
49852;SDS011;35751;48.072;11.688;2023-02-21T07:58:27;4.47;;;2.15;;
49852;SDS011;35751;48.072;11.688;2023-02-21T08:00:52;4.88;;;2.13;;
49852;SDS011;35751;48.072;11.688;2023-02-21T08:03:19;5.65;;;1.65;;
49852;SDS011;35751;48.072;11.688;2023-02-21T08:05:45;1.75;;;1.25;;
49852;SDS011;35751;48.072;11.688;2023-02-21T08:08:11;3.60;;;1.25;;
49852;SDS011;35751;48.072;11.688;2023-02-21T08:10:39;2.58;;;1.45;;
49852;SDS011;35751;48.072;11.688;2023-02-21T08:13:05;4.20;;;1.63;;
49852;SDS011;35751;48.072;11.688;2023-02-21T08:15:30;3.78;;;1.45;;
49852;SDS011;35751;48.072;11.688;2023-02-21T08:17:56;5.25;;;1.23;;
49852;SDS011;35751;48.072;11.688;2023-02-21T08:20:22;1.58;;;1.20;;
49852;SDS011;35751;48.072;11.688;2023-02-21T08:22:47;6.85;;;1.30;;
49852;SDS011;35751;48.072;11.688;2023-02-21T08:25:13;3.25;;;1.33;;
49852;SDS011;35751;48.072;11.688;2023-02-21T08:27:40;4.30;;;1.55;;
49852;SDS011;35751;48.072;11.688;2023-02-21T08:30:07;2.67;;;1.40;;
49852;SDS011;35751;48.072;11.688;2023-02-21T08:32:34;2.50;;;1.55;;
49852;SDS011;35751;48.072;11.688;2023-02-21T08:35:00;3.70;;;1.40;;
49852;SDS011;35751;48.072;11.688;2023-02-21T08:37:31;1.30;;;1.20;;
49852;SDS011;35751;48.072;11.688;2023-02-21T08:40:00;3.08;;;1.70;;
49852;SDS011;35751;48.072;11.688;2023-02-21T08:42:26;5.13;;;1.60;;
49852;SDS011;35751;48.072;11.688;2023-02-21T08:44:51;4.13;;;1.33;;
49852;SDS011;35751;48.072;11.688;2023-02-21T08:47:17;3.83;;;1.35;;
49852;SDS011;35751;48.072;11.688;2023-02-21T08:49:43;7.13;;;2.40;;
49852;SDS011;35751;48.072;11.688;2023-02-21T08:52:11;4.53;;;1.48;;
49852;SDS011;35751;48.072;11.688;2023-02-21T08:54:39;1.63;;;1.20;;
49852;SDS011;35751;48.072;11.688;2023-02-21T08:57:05;5.80;;;2.03;;
49852;SDS011;35751;48.072;11.688;2023-02-21T08:59:31;2.38;;;1.38;;
49852;SDS011;35751;48.072;11.688;2023-02-21T09:02:00;4.68;;;1.75;;
49852;SDS011;35751;48.072;11.688;2023-02-21T09:04:26;4.22;;;1.45;;
49852;SDS011;35751;48.072;11.688;2023-02-21T09:06:52;5.70;;;1.70;;
49852;SDS011;35751;48.072;11.688;2023-02-21T09:09:19;2.78;;;1.40;;
49852;SDS011;35751;48.072;11.688;2023-02-21T09:11:45;2.22;;;1.30;;
49852;SDS011;35751;48.072;11.688;2023-02-21T09:14:12;3.78;;;1.80;;
49852;SDS011;35751;48.072;11.688;2023-02-21T09:16:38;4.18;;;1.30;;
49852;SDS011;35751;48.072;11.688;2023-02-21T09:19:05;3.60;;;1.20;;
49852;SDS011;35751;48.072;11.688;2023-02-21T09:21:31;4.03;;;1.30;;
49852;SDS011;35751;48.072;11.688;2023-02-21T09:23:58;2.20;;;1.80;;
49852;SDS011;35751;48.072;11.688;2023-02-21T09:26:27;2.70;;;1.20;;
49852;SDS011;35751;48.072;11.688;2023-02-21T09:28:56;3.05;;;1.30;;
49852;SDS011;35751;48.072;11.688;2023-02-21T09:31:22;2.60;;;1.25;;
49852;SDS011;35751;48.072;11.688;2023-02-21T09:33:48;4.20;;;1.50;;
49852;SDS011;35751;48.072;11.688;2023-02-21T09:36:14;4.13;;;1.42;;
49852;SDS011;35751;48.072;11.688;2023-02-21T09:38:41;3.97;;;1.45;;
49852;SDS011;35751;48.072;11.688;2023-02-21T09:41:08;2.22;;;1.30;;
49852;SDS011;35751;48.072;11.688;2023-02-21T09:43:40;2.13;;;1.55;;
49852;SDS011;35751;48.072;11.688;2023-02-21T09:46:30;6.68;;;1.40;;
49852;SDS011;35751;48.072;11.688;2023-02-21T09:48:56;2.80;;;1.50;;
49852;SDS011;35751;48.072;11.688;2023-02-21T09:51:23;2.33;;;1.40;;
49852;SDS011;35751;48.072;11.688;2023-02-21T09:53:49;2.45;;;1.25;;
49852;SDS011;35751;48.072;11.688;2023-02-21T09:56:20;3.15;;;1.10;;
49852;SDS011;35751;48.072;11.688;2023-02-21T09:58:58;2.17;;;1.00;;
49852;SDS011;35751;48.072;11.688;2023-02-21T10:21:20;5.32;;;1.00;;
49852;SDS011;35751;48.072;11.688;2023-02-21T10:23:50;3.08;;;1.00;;
49852;SDS011;35751;48.072;11.688;2023-02-21T10:26:19;2.00;;;1.20;;
49852;SDS011;35751;48.072;11.688;2023-02-21T10:28:48;1.17;;;1.00;;
49852;SDS011;35751;48.072;11.688;2023-02-21T10:31:17;3.13;;;1.00;;
49852;SDS011;35751;48.072;11.688;2023-02-21T10:33:46;2.25;;;0.82;;
49852;SDS011;35751;48.072;11.688;2023-02-21T10:36:19;1.63;;;0.90;;
49852;SDS011;35751;48.072;11.688;2023-02-21T10:38:52;0.65;;;0.65;;
49852;SDS011;35751;48.072;11.688;2023-02-21T10:41:21;1.10;;;0.85;;
49852;SDS011;35751;48.072;11.688;2023-02-21T10:43:50;0.95;;;0.80;;
49852;SDS011;35751;48.072;11.688;2023-02-21T10:46:24;1.65;;;0.93;;
49852;SDS011;35751;48.072;11.688;2023-02-21T10:48:54;2.92;;;0.95;;
49852;SDS011;35751;48.072;11.688;2023-02-21T10:51:28;1.58;;;1.00;;
49852;SDS011;35751;48.072;11.688;2023-02-21T10:54:15;1.20;;;0.85;;
49852;SDS011;35751;48.072;11.688;2023-02-21T10:56:44;1.35;;;0.88;;
49852;SDS011;35751;48.072;11.688;2023-02-21T10:59:26;1.92;;;0.95;;
49852;SDS011;35751;48.072;11.688;2023-02-21T11:01:57;2.28;;;0.70;;
49852;SDS011;35751;48.072;11.688;2023-02-21T11:04:25;2.15;;;1.52;;
49852;SDS011;35751;48.072;11.688;2023-02-21T11:07:02;2.63;;;0.60;;
49852;SDS011;35751;48.072;11.688;2023-02-21T11:14:35;2.67;;;1.30;;
49852;SDS011;35751;48.072;11.688;2023-02-21T11:19:42;2.67;;;0.90;;
49852;SDS011;35751;48.072;11.688;2023-02-21T11:22:13;1.95;;;0.85;;
49852;SDS011;35751;48.072;11.688;2023-02-21T11:24:48;3.10;;;1.02;;
49852;SDS011;35751;48.072;11.688;2023-02-21T11:27:17;3.95;;;1.30;;
49852;SDS011;35751;48.072;11.688;2023-02-21T11:29:43;3.00;;;1.10;;
49852;SDS011;35751;48.072;11.688;2023-02-21T11:37:54;2.13;;;0.85;;
49852;SDS011;35751;48.072;11.688;2023-02-21T11:40:28;1.88;;;1.17;;
49852;SDS011;35751;48.072;11.688;2023-02-21T11:43:10;3.25;;;1.17;;
49852;SDS011;35751;48.072;11.688;2023-02-21T11:45:40;6.60;;;1.02;;
49852;SDS011;35751;48.072;11.688;2023-02-21T11:48:13;2.45;;;1.45;;
49852;SDS011;35751;48.072;11.688;2023-02-21T11:50:43;5.70;;;1.23;;
49852;SDS011;35751;48.072;11.688;2023-02-21T11:56:29;0.95;;;0.70;;
49852;SDS011;35751;48.072;11.688;2023-02-21T12:01:27;1.53;;;0.93;;
49852;SDS011;35751;48.072;11.688;2023-02-21T12:06:39;6.28;;;1.25;;
49852;SDS011;35751;48.072;11.688;2023-02-21T12:12:08;1.92;;;0.70;;
49852;SDS011;35751;48.072;11.688;2023-02-21T12:15:03;3.33;;;0.80;;
49852;SDS011;35751;48.072;11.688;2023-02-21T12:17:44;0.88;;;0.80;;
49852;SDS011;35751;48.072;11.688;2023-02-21T12:20:52;1.13;;;1.02;;
49852;SDS011;35751;48.072;11.688;2023-02-21T12:23:24;1.70;;;0.90;;
49852;SDS011;35751;48.072;11.688;2023-02-21T12:35:10;2.17;;;0.95;;
49852;SDS011;35751;48.072;11.688;2023-02-21T12:40:10;0.95;;;0.73;;
49852;SDS011;35751;48.072;11.688;2023-02-21T12:42:51;1.67;;;0.90;;
49852;SDS011;35751;48.072;11.688;2023-02-21T12:48:17;1.88;;;1.10;;
49852;SDS011;35751;48.072;11.688;2023-02-21T12:50:48;1.75;;;0.90;;
49852;SDS011;35751;48.072;11.688;2023-02-21T12:55:51;2.53;;;0.80;;
49852;SDS011;35751;48.072;11.688;2023-02-21T12:58:41;1.02;;;0.70;;
49852;SDS011;35751;48.072;11.688;2023-02-21T13:01:19;2.60;;;1.25;;
49852;SDS011;35751;48.072;11.688;2023-02-21T13:06:46;1.95;;;1.00;;
49852;SDS011;35751;48.072;11.688;2023-02-21T13:11:59;2.08;;;0.77;;
49852;SDS011;35751;48.072;11.688;2023-02-21T13:14:34;1.83;;;0.90;;
49852;SDS011;35751;48.072;11.688;2023-02-21T13:17:08;3.28;;;0.80;;
49852;SDS011;35751;48.072;11.688;2023-02-21T13:19:45;1.95;;;0.88;;
49852;SDS011;35751;48.072;11.688;2023-02-21T13:25:49;0.45;;;0.45;;
49852;SDS011;35751;48.072;11.688;2023-02-21T13:28:29;6.82;;;1.63;;
49852;SDS011;35751;48.072;11.688;2023-02-21T13:31:04;1.73;;;0.85;;
49852;SDS011;35751;48.072;11.688;2023-02-21T13:44:32;0.70;;;0.70;;
49852;SDS011;35751;48.072;11.688;2023-02-21T13:47:15;1.98;;;1.15;;
49852;SDS011;35751;48.072;11.688;2023-02-21T14:03:03;2.72;;;0.82;;
49852;SDS011;35751;48.072;11.688;2023-02-21T14:16:09;1.45;;;1.02;;
49852;SDS011;35751;48.072;11.688;2023-02-21T14:21:28;1.02;;;0.70;;
49852;SDS011;35751;48.072;11.688;2023-02-21T14:26:47;1.02;;;0.88;;
49852;SDS011;35751;48.072;11.688;2023-02-21T14:29:29;4.70;;;0.75;;
49852;SDS011;35751;48.072;11.688;2023-02-21T14:42:36;0.90;;;0.65;;
49852;SDS011;35751;48.072;11.688;2023-02-21T15:01:57;0.95;;;0.85;;
49852;SDS011;35751;48.072;11.688;2023-02-21T15:05:05;4.90;;;1.15;;
49852;SDS011;35751;48.072;11.688;2023-02-21T15:10:30;1.95;;;0.77;;
49852;SDS011;35751;48.072;11.688;2023-02-21T15:13:02;2.97;;;1.23;;
49852;SDS011;35751;48.072;11.688;2023-02-21T15:20:38;1.23;;;0.73;;
49852;SDS011;35751;48.072;11.688;2023-02-21T15:25:38;1.73;;;0.73;;
49852;SDS011;35751;48.072;11.688;2023-02-21T15:28:06;1.48;;;1.15;;
49852;SDS011;35751;48.072;11.688;2023-02-21T15:31:06;1.00;;;0.70;;
49852;SDS011;35751;48.072;11.688;2023-02-21T15:33:37;1.17;;;0.90;;
49852;SDS011;35751;48.072;11.688;2023-02-21T15:36:14;6.60;;;1.40;;
49852;SDS011;35751;48.072;11.688;2023-02-21T15:41:38;2.30;;;0.80;;
49852;SDS011;35751;48.072;11.688;2023-02-21T15:47:12;0.75;;;0.63;;
49852;SDS011;35751;48.072;11.688;2023-02-21T15:49:41;2.58;;;0.80;;
49852;SDS011;35751;48.072;11.688;2023-02-21T15:52:25;1.35;;;0.63;;
49852;SDS011;35751;48.072;11.688;2023-02-21T15:55:11;1.27;;;0.57;;
49852;SDS011;35751;48.072;11.688;2023-02-21T16:00:35;3.25;;;1.00;;
49852;SDS011;35751;48.072;11.688;2023-02-21T16:08:57;5.22;;;1.45;;
49852;SDS011;35751;48.072;11.688;2023-02-21T16:19:33;2.20;;;0.98;;
49852;SDS011;35751;48.072;11.688;2023-02-21T16:27:35;2.10;;;1.10;;
49852;SDS011;35751;48.072;11.688;2023-02-21T16:30:01;1.95;;;0.88;;
49852;SDS011;35751;48.072;11.688;2023-02-21T16:32:27;1.65;;;0.82;;
49852;SDS011;35751;48.072;11.688;2023-02-21T16:34:53;0.75;;;0.60;;
49852;SDS011;35751;48.072;11.688;2023-02-21T16:37:19;2.88;;;0.70;;
49852;SDS011;35751;48.072;11.688;2023-02-21T16:39:46;2.22;;;1.00;;
49852;SDS011;35751;48.072;11.688;2023-02-21T16:42:13;4.88;;;1.40;;
49852;SDS011;35751;48.072;11.688;2023-02-21T16:44:41;2.70;;;1.10;;
49852;SDS011;35751;48.072;11.688;2023-02-21T16:47:10;1.55;;;1.10;;
49852;SDS011;35751;48.072;11.688;2023-02-21T16:49:41;3.95;;;1.08;;
49852;SDS011;35751;48.072;11.688;2023-02-21T16:52:10;2.22;;;1.20;;
49852;SDS011;35751;48.072;11.688;2023-02-21T16:54:38;2.80;;;1.60;;
49852;SDS011;35751;48.072;11.688;2023-02-21T16:57:04;2.63;;;1.10;;
49852;SDS011;35751;48.072;11.688;2023-02-21T16:59:30;3.88;;;1.48;;
49852;SDS011;35751;48.072;11.688;2023-02-21T17:01:55;2.30;;;1.48;;
49852;SDS011;35751;48.072;11.688;2023-02-21T17:04:22;2.72;;;0.70;;
49852;SDS011;35751;48.072;11.688;2023-02-21T17:06:53;4.35;;;2.03;;
49852;SDS011;35751;48.072;11.688;2023-02-21T17:09:22;1.95;;;1.23;;
49852;SDS011;35751;48.072;11.688;2023-02-21T17:11:48;3.35;;;1.48;;
49852;SDS011;35751;48.072;11.688;2023-02-21T17:14:14;3.08;;;1.13;;
49852;SDS011;35751;48.072;11.688;2023-02-21T17:16:40;4.63;;;1.92;;
49852;SDS011;35751;48.072;11.688;2023-02-21T17:19:09;2.55;;;1.60;;
49852;SDS011;35751;48.072;11.688;2023-02-21T17:21:45;2.03;;;1.30;;
49852;SDS011;35751;48.072;11.688;2023-02-21T17:24:11;1.75;;;0.95;;
49852;SDS011;35751;48.072;11.688;2023-02-21T17:26:37;3.22;;;1.23;;
49852;SDS011;35751;48.072;11.688;2023-02-21T17:29:03;3.38;;;1.58;;
49852;SDS011;35751;48.072;11.688;2023-02-21T17:31:29;2.65;;;1.27;;
49852;SDS011;35751;48.072;11.688;2023-02-21T17:33:54;4.53;;;1.20;;
49852;SDS011;35751;48.072;11.688;2023-02-21T17:36:22;3.25;;;1.65;;
49852;SDS011;35751;48.072;11.688;2023-02-21T17:38:49;6.40;;;3.85;;
49852;SDS011;35751;48.072;11.688;2023-02-21T17:41:14;21.25;;;10.05;;
49852;SDS011;35751;48.072;11.688;2023-02-21T17:43:40;18.58;;;8.88;;
49852;SDS011;35751;48.072;11.688;2023-02-21T17:46:09;19.30;;;9.27;;
49852;SDS011;35751;48.072;11.688;2023-02-21T17:48:41;13.65;;;6.80;;
49852;SDS011;35751;48.072;11.688;2023-02-21T17:51:07;10.13;;;4.82;;
49852;SDS011;35751;48.072;11.688;2023-02-21T17:53:33;7.20;;;4.13;;
49852;SDS011;35751;48.072;11.688;2023-02-21T17:55:58;7.43;;;3.78;;
49852;SDS011;35751;48.072;11.688;2023-02-21T17:58:27;5.78;;;4.05;;
49852;SDS011;35751;48.072;11.688;2023-02-21T18:00:54;5.72;;;3.13;;
49852;SDS011;35751;48.072;11.688;2023-02-21T18:03:20;7.97;;;3.92;;
49852;SDS011;35751;48.072;11.688;2023-02-21T18:05:46;9.48;;;4.50;;
49852;SDS011;35751;48.072;11.688;2023-02-21T18:08:12;7.38;;;4.43;;
49852;SDS011;35751;48.072;11.688;2023-02-21T18:10:38;7.50;;;4.82;;
49852;SDS011;35751;48.072;11.688;2023-02-21T18:13:03;9.52;;;6.78;;
49852;SDS011;35751;48.072;11.688;2023-02-21T18:15:28;7.88;;;4.00;;
49852;SDS011;35751;48.072;11.688;2023-02-21T18:17:54;3.88;;;3.17;;
49852;SDS011;35751;48.072;11.688;2023-02-21T18:20:20;7.32;;;3.42;;
49852;SDS011;35751;48.072;11.688;2023-02-21T18:22:46;12.57;;;5.70;;
49852;SDS011;35751;48.072;11.688;2023-02-21T18:25:11;4.97;;;3.70;;
49852;SDS011;35751;48.072;11.688;2023-02-21T18:27:41;11.98;;;6.82;;
49852;SDS011;35751;48.072;11.688;2023-02-21T18:30:06;12.05;;;10.15;;